This is the latest recevied weather packets stored in our database for station/object K7FRY. If no packets are shown the sender has not sent any weather packets the latest 10 day(s).
| Time | Temp. | Humidity | Pressure | Rain* | Wind** | Luminosity | Snow |
|---|---|---|---|---|---|---|---|
| 1777241492 | 23.89° C | 31% | 1011.1 hPa | 0 mm | - | 615 W/m² | - |
| 1777241189 | 23.89° C | 31% | 1010.9 hPa | 0 mm | - | 646 W/m² | - |
| 1777240887 | 24.44° C | 31% | 1011.2 hPa | 0 mm | - | 665 W/m² | - |
| 1777240584 | 23.89° C | 31% | 1011.2 hPa | 0 mm | - | 264 W/m² | - |
| 1777240282 | 24.44° C | 30% | 1011.3 hPa | 0 mm | - | 636 W/m² | - |
| 1777239979 | 25.56° C | 30% | 1011.3 hPa | 0 mm | - | 749 W/m² | - |
| 1777239676 | 25° C | 29% | 1011.2 hPa | 0 mm | - | 827 W/m² | - |
| 1777239372 | 23.89° C | 31% | 1011.4 hPa | 0 mm | - | 823 W/m² | - |
| 1777239070 | 24.44° C | 30% | 1011.4 hPa | 0 mm | - | 265 W/m² | - |
| 1777238767 | 23.89° C | 32% | 1011.4 hPa | 0 mm | - | 657 W/m² | - |
| 1777238463 | 24.44° C | 30% | 1011.4 hPa | 0 mm | - | 824 W/m² | - |
| 1777238160 | 23.89° C | 33% | 1011.8 hPa | 0 mm | - | 442 W/m² | - |
| 1777237857 | 23.33° C | 35% | 1011.9 hPa | 0 mm | - | 844 W/m² | - |
| 1777237553 | 23.33° C | 34% | 1011.6 hPa | 0 mm | - | 799 W/m² | - |
| 1777237251 | 25° C | 31% | 1011.9 hPa | 0 mm | - | 188 W/m² | - |
| 1777236948 | 23.89° C | 32% | 1011.6 hPa | 0 mm | - | 884 W/m² | - |
| 1777236645 | 24.44° C | 34% | 1011.9 hPa | 0 mm | - | 283 W/m² | - |
| 1777236340 | 23.89° C | 32% | 1012.2 hPa | 0 mm | - | 915 W/m² | - |
| 1777236036 | 23.89° C | 31% | 1011.9 hPa | 0 mm | - | 891 W/m² | - |
| 1777235732 | 24.44° C | 31% | 1012.1 hPa | 0 mm | - | 863 W/m² | - |
| 1777235430 | 23.33° C | 34% | 1011.8 hPa | 0 mm | - | 929 W/m² | - |
| 1777235126 | 23.33° C | 33% | 1011.8 hPa | 0 mm | - | 418 W/m² | - |
| 1777234821 | 23.89° C | 34% | 1012.1 hPa | 0 mm | - | 636 W/m² | - |
| 1777234518 | 23.89° C | 35% | 1012.1 hPa | 0 mm | - | 768 W/m² | - |
| 1777234218 | 23.33° C | 36% | 1012.1 hPa | 0 mm | - | 271 W/m² | - |
* Rain latest hour (hover to see other rain measurements)
** Current wind speed in m/s (hover to see current wind gust speed)